Ashburn, Georgia
Current Conditions -  °F | °C
As of 2:35 PM on Sunday 23 Nov 2014 (Local Time) from KCKF Reporting Station
Overcast Overcast  
Wind Chill: 72°   Ceiling: 1000
Heat Index: 72°   Visibility: 10mi
Dew Point: 69°   Wind: 6mph
Humidity: 91%   Direction: 160°SSE
Pressure: 29.76"   Gusts: NA
Location:  31.71°N, 83.65°W
Report Text: KCKF 231935Z AUTO 16005KT 10SM BKN010 OVC015 22/21 A2976 RMK AO2 T02210206
Loading
Personal Weather Stations






























Interactive Weather Map New forecast layout! Learn more

10-Day Weather Forecast

Advertisements
Track Severe Weather on mobile